createdAt,value
2022-10-01T00:01:43.880Z,100680.69
2022-10-01T00:04:11.020Z,100691.13
2022-10-01T00:06:37.800Z,100692.38
2022-10-01T00:09:04.917Z,100686.47
2022-10-01T00:11:33.985Z,100682.16
2022-10-01T00:14:01.747Z,100683.19
2022-10-01T00:16:30.798Z,100682.84
2022-10-01T00:18:58.413Z,100682.25
2022-10-01T00:21:29.149Z,100674.25
2022-10-01T00:24:03.147Z,100674.91
2022-10-01T00:26:33.762Z,100675.50
2022-10-01T00:29:04.619Z,100675.13
2022-10-01T00:31:32.599Z,100667.72
2022-10-01T00:34:02.813Z,100669.41
2022-10-01T00:36:30.640Z,100672.69
2022-10-01T00:39:00.459Z,100671.06
2022-10-01T00:41:30.359Z,100663.25
2022-10-01T00:44:23.986Z,100660.00
2022-10-01T00:46:52.380Z,100661.28
2022-10-01T00:49:24.848Z,100661.72
2022-10-01T00:51:59.061Z,100661.94
2022-10-01T00:54:33.749Z,100661.13
2022-10-01T00:57:02.786Z,100662.59
2022-10-01T00:59:30.973Z,100660.97
2022-10-01T01:01:58.099Z,100659.34
2022-10-01T01:04:25.173Z,100643.81
2022-10-01T01:06:58.262Z,100649.13
2022-10-01T01:09:34.835Z,100644.63
2022-10-01T01:12:47.545Z,100654.47
2022-10-01T01:15:36.006Z,100653.28
2022-10-01T01:18:15.624Z,100647.34
2022-10-01T01:21:30.630Z,100650.84
2022-10-01T01:24:29.994Z,100643.50
2022-10-01T01:27:33.488Z,100652.53
2022-10-01T01:30:09.329Z,100647.66
2022-10-01T01:33:03.299Z,100639.88
2022-10-01T01:35:36.645Z,100637.66
2022-10-01T01:38:11.237Z,100639.06
2022-10-01T01:40:40.753Z,100644.63
2022-10-01T01:43:15.776Z,100628.50
2022-10-01T01:45:43.725Z,100628.03
2022-10-01T01:48:12.963Z,100621.53
2022-10-01T01:50:48.997Z,100626.41
2022-10-01T01:53:16.304Z,100621.53
2022-10-01T01:55:47.593Z,100617.84
2022-10-01T01:58:16.291Z,100617.84
2022-10-01T02:00:44.150Z,100611.69
2022-10-01T02:03:11.550Z,100603.13
2022-10-01T02:05:52.380Z,100607.56
2022-10-01T02:08:27.770Z,100619.00
2022-10-01T02:11:37.080Z,100606.50
2022-10-01T02:14:20.348Z,100611.03
2022-10-01T02:17:07.021Z,100612.66
2022-10-01T02:19:55.942Z,100594.81
2022-10-01T02:22:48.857Z,100596.44
2022-10-01T02:25:18.976Z,100601.94
2022-10-01T02:28:01.647Z,100603.34
2022-10-01T02:30:32.391Z,100607.84
2022-10-01T02:33:01.567Z,100614.34
2022-10-01T02:35:32.433Z,100614.13
2022-10-01T02:38:02.008Z,100616.34
2022-10-01T02:40:33.657Z,100613.47
2022-10-01T02:43:08.191Z,100624.94
2022-10-01T02:45:38.363Z,100610.78
2022-10-01T02:48:09.454Z,100607.91
2022-10-01T02:50:52.112Z,100598.88
2022-10-01T02:53:42.500Z,100603.19
2022-10-01T02:56:11.695Z,100598.44
2022-10-01T02:58:38.857Z,100593.69
2022-10-01T03:01:06.276Z,100590.22
2022-10-01T03:03:33.131Z,100595.09
2022-10-01T03:06:00.154Z,100584.81
2022-10-01T03:08:26.958Z,100593.97
2022-10-01T03:10:54.269Z,100588.00
2022-10-01T03:13:23.352Z,100586.75
2022-10-01T03:15:50.465Z,100590.00
2022-10-01T03:18:17.633Z,100578.88
2022-10-01T03:20:44.420Z,100569.63
2022-10-01T03:23:11.442Z,100562.78
2022-10-01T03:25:39.223Z,100555.59
2022-10-01T03:28:06.156Z,100551.69
2022-10-01T03:30:34.744Z,100555.28
2022-10-01T03:33:01.786Z,100555.66
2022-10-01T03:35:28.610Z,100548.22
2022-10-01T03:37:55.408Z,100544.28
2022-10-01T03:40:22.184Z,100540.59
2022-10-01T03:42:50.155Z,100539.91
2022-10-01T03:45:17.033Z,100539.91
2022-10-01T03:47:44.056Z,100540.25
2022-10-01T03:50:10.835Z,100535.75
2022-10-01T03:52:37.678Z,100535.50
2022-10-01T03:55:05.818Z,100544.31
2022-10-01T03:57:32.676Z,100535.75
2022-10-01T04:00:02.190Z,100534.69
2022-10-01T04:02:38.570Z,100532.38
2022-10-01T04:05:05.739Z,100529.47
2022-10-01T04:07:32.554Z,100539.69
2022-10-01T04:09:59.565Z,100524.28
2022-10-01T04:12:26.385Z,100521.38
2022-10-01T04:14:53.493Z,100510.25
2022-10-01T04:17:20.918Z,100526.19
2022-10-01T04:19:47.773Z,100519.56
2022-10-01T04:22:15.033Z,100519.69
2022-10-01T04:24:42.841Z,100524.34
2022-10-01T04:27:09.862Z,100508.09
2022-10-01T04:29:40.196Z,100512.31
2022-10-01T04:32:07.639Z,100497.91
2022-10-01T04:34:52.867Z,100500.47
2022-10-01T04:37:21.671Z,100502.09
2022-10-01T04:39:49.017Z,100511.25
2022-10-01T04:42:16.173Z,100505.69
2022-10-01T04:44:43.020Z,100516.13
2022-10-01T04:47:09.911Z,100506.84
2022-10-01T04:49:37.062Z,100506.59
2022-10-01T04:52:04.297Z,100512.88
2022-10-01T04:54:31.802Z,100504.03
2022-10-01T04:56:58.753Z,100494.06
2022-10-01T04:59:25.946Z,100498.94
2022-10-01T05:01:52.862Z,100498.47
2022-10-01T05:04:19.910Z,100483.25
2022-10-01T05:06:46.895Z,100485.22
2022-10-01T05:09:13.714Z,100479.88
2022-10-01T05:11:40.973Z,100478.94
2022-10-01T05:14:08.475Z,100485.19
2022-10-01T05:16:35.518Z,100478.56
2022-10-01T05:19:02.528Z,100486.34
2022-10-01T05:21:29.536Z,100482.38
2022-10-01T05:23:56.368Z,100478.44
2022-10-01T05:26:23.626Z,100476.56
2022-10-01T05:28:50.962Z,100479.56
2022-10-01T05:31:18.635Z,100479.69
2022-10-01T05:33:45.814Z,100483.72
2022-10-01T05:36:12.645Z,100489.06
2022-10-01T05:38:39.469Z,100482.53
2022-10-01T05:41:06.776Z,100479.19
2022-10-01T05:43:33.942Z,100470.94
2022-10-01T05:46:02.040Z,100462.19
2022-10-01T05:48:36.743Z,100466.03
2022-10-01T05:51:07.944Z,100460.78
2022-10-01T05:53:37.791Z,100453.91
2022-10-01T05:56:07.033Z,100455.59
2022-10-01T05:58:34.494Z,100451.50
2022-10-01T06:01:01.512Z,100446.22
2022-10-01T06:03:29.001Z,100430.03
2022-10-01T06:05:56.244Z,100432.56
2022-10-01T06:08:23.266Z,100426.56
2022-10-01T06:10:50.545Z,100430.22
2022-10-01T06:13:20.264Z,100415.53
2022-10-01T06:15:47.310Z,100426.75
2022-10-01T06:18:14.614Z,100415.06
2022-10-01T06:20:42.022Z,100412.78
2022-10-01T06:23:12.257Z,100419.09
2022-10-01T06:25:43.746Z,100404.22
2022-10-01T06:28:14.464Z,100391.47
2022-10-01T06:30:42.497Z,100386.19
2022-10-01T06:33:13.684Z,100391.09
2022-10-01T06:35:47.258Z,100394.66
2022-10-01T06:38:15.248Z,100389.59
2022-10-01T06:40:42.233Z,100391.28
2022-10-01T06:43:10.035Z,100394.56
2022-10-01T06:45:41.204Z,100378.00
2022-10-01T06:48:13.963Z,100382.69
2022-10-01T06:50:42.452Z,100376.31
2022-10-01T06:53:09.717Z,100378.28
2022-10-01T06:55:37.876Z,100382.63
2022-10-01T06:58:15.675Z,100380.81
2022-10-01T07:00:43.735Z,100377.38
2022-10-01T07:03:21.000Z,100364.84
2022-10-01T07:05:49.204Z,100360.56
2022-10-01T07:08:16.693Z,100356.31
2022-10-01T07:10:44.405Z,100356.63
2022-10-01T07:13:16.309Z,100351.56
2022-10-01T07:15:44.497Z,100341.94
2022-10-01T07:18:12.704Z,100350.03
2022-10-01T07:20:40.536Z,100351.13
2022-10-01T07:23:11.231Z,100338.03
2022-10-01T07:25:39.758Z,100331.59
2022-10-01T07:28:16.109Z,100328.94
2022-10-01T07:30:47.583Z,100322.81
2022-10-01T07:33:23.476Z,100332.72
2022-10-01T07:35:50.352Z,100328.50
2022-10-01T07:38:17.372Z,100322.88
2022-10-01T07:40:44.400Z,100311.63
2022-10-01T07:43:14.509Z,100304.97
2022-10-01T07:45:42.410Z,100305.28
2022-10-01T07:48:09.611Z,100298.59
2022-10-01T07:50:37.993Z,100307.22
2022-10-01T07:53:05.366Z,100299.75
2022-10-01T07:55:32.925Z,100280.44
2022-10-01T07:58:02.667Z,100279.41
2022-10-01T08:00:31.795Z,100277.88
2022-10-01T08:02:59.287Z,100278.97
2022-10-01T08:05:30.047Z,100269.34
2022-10-01T08:08:08.506Z,100265.66
2022-10-01T08:10:38.616Z,100264.31
2022-10-01T08:13:16.385Z,100254.13
2022-10-01T08:15:53.682Z,100257.09
2022-10-01T08:18:22.435Z,100250.09
2022-10-01T08:20:49.416Z,100245.53
2022-10-01T08:23:17.280Z,100255.78
2022-10-01T08:25:45.520Z,100231.03
2022-10-01T08:28:13.042Z,100244.50
2022-10-01T08:30:42.088Z,100242.59
2022-10-01T08:33:13.464Z,100234.28
2022-10-01T08:35:43.358Z,100239.38
2022-10-01T08:38:12.248Z,100245.88
2022-10-01T08:41:00.850Z,100239.97
2022-10-01T08:43:33.796Z,100244.81
2022-10-01T08:46:11.377Z,100227.31
2022-10-01T08:48:56.881Z,100221.09
2022-10-01T08:51:42.778Z,100230.50
2022-10-01T08:54:34.219Z,100218.09
2022-10-01T08:57:06.700Z,100220.50
2022-10-01T08:59:48.977Z,100217.78
2022-10-01T09:02:23.294Z,100209.16
2022-10-01T09:05:00.314Z,100197.50
2022-10-01T09:07:56.305Z,100195.28
2022-10-01T09:10:46.970Z,100185.81
2022-10-01T09:13:55.285Z,100184.66
2022-10-01T09:16:42.110Z,100178.41
2022-10-01T09:19:43.447Z,100172.72
2022-10-01T09:22:29.286Z,100171.88
2022-10-01T09:25:35.655Z,100165.88
2022-10-01T09:28:23.102Z,100152.94
2022-10-01T09:31:14.374Z,100156.66
2022-10-01T09:33:46.488Z,100147.78
2022-10-01T09:36:40.117Z,100160.13
2022-10-01T09:39:18.693Z,100136.41
2022-10-01T09:41:46.473Z,100133.97
2022-10-01T09:44:26.525Z,100134.72
2022-10-01T09:46:55.629Z,100134.69
2022-10-01T09:49:33.711Z,100122.78
2022-10-01T09:52:11.010Z,100124.88
2022-10-01T09:55:21.283Z,100119.91
2022-10-01T09:57:55.776Z,100116.44
2022-10-01T10:00:26.493Z,100117.34
2022-10-01T10:02:55.511Z,100128.19
2022-10-01T10:05:28.376Z,100106.72
2022-10-01T10:08:05.073Z,100107.31
2022-10-01T10:10:36.856Z,100098.75
2022-10-01T10:13:10.909Z,100093.47
2022-10-01T10:15:58.856Z,100096.72
2022-10-01T10:18:34.472Z,100096.59
2022-10-01T10:21:25.343Z,100097.50
2022-10-01T10:23:57.837Z,100091.13
2022-10-01T10:26:31.866Z,100098.22
2022-10-01T10:29:03.453Z,100102.91
2022-10-01T10:31:41.901Z,100101.91
2022-10-01T10:34:16.735Z,100100.38
2022-10-01T10:36:45.844Z,100107.63
2022-10-01T10:39:21.130Z,100092.59
2022-10-01T10:41:50.379Z,100097.16
2022-10-01T10:44:21.456Z,100102.84
2022-10-01T10:46:50.783Z,100096.41
2022-10-01T10:49:33.509Z,100092.59
2022-10-01T10:52:02.122Z,100111.13
2022-10-01T10:54:40.004Z,100108.16
2022-10-01T10:57:33.427Z,100099.53
2022-10-01T11:00:12.466Z,100077.78
2022-10-01T11:03:00.323Z,100081.78
2022-10-01T11:05:32.748Z,100095.19
2022-10-01T11:08:12.968Z,100091.97
2022-10-01T11:11:38.216Z,100084.44
2022-10-01T11:14:48.728Z,100087.13
2022-10-01T11:17:35.854Z,100080.94
2022-10-01T11:20:05.162Z,100078.00
2022-10-01T11:22:48.550Z,100086.84
2022-10-01T11:25:51.741Z,100084.72
2022-10-01T11:28:33.257Z,100065.91
2022-10-01T11:31:18.846Z,100081.22
2022-10-01T11:34:16.287Z,100072.66
2022-10-01T11:36:59.202Z,100065.94
2022-10-01T11:39:28.739Z,100073.19
2022-10-01T11:42:13.901Z,100051.44
2022-10-01T11:45:02.169Z,100057.06
2022-10-01T11:47:52.646Z,100047.69
2022-10-01T11:53:23.057Z,100052.81
2022-10-01T11:56:20.236Z,100050.91
2022-10-01T11:59:08.321Z,100057.09
2022-10-01T12:02:07.068Z,100054.16
2022-10-01T12:04:43.325Z,100052.25
2022-10-01T12:07:20.540Z,100047.97
2022-10-01T12:10:21.902Z,100057.09
2022-10-01T12:12:57.624Z,100052.78
2022-10-01T12:15:43.508Z,100058.16
2022-10-01T12:18:23.993Z,100056.00
2022-10-01T12:20:56.172Z,100052.25
2022-10-01T12:23:28.677Z,100053.88
2022-10-01T12:26:24.048Z,100040.72
2022-10-01T12:29:31.329Z,100051.72
2022-10-01T12:32:30.229Z,100047.69
2022-10-01T12:35:31.995Z,100055.50
2022-10-01T12:38:08.573Z,100049.31
2022-10-01T12:41:02.856Z,100047.44
2022-10-01T12:44:18.048Z,100052.53
2022-10-01T12:47:12.901Z,100048.47
2022-10-01T12:50:31.813Z,100054.38
2022-10-01T12:53:30.765Z,100050.09
2022-10-01T12:56:10.710Z,100039.06
2022-10-01T12:59:21.150Z,100039.88
2022-10-01T13:02:27.291Z,100041.50
2022-10-01T13:05:38.050Z,100056.25
2022-10-01T13:08:17.364Z,100037.72
2022-10-01T13:11:06.663Z,100050.34
2022-10-01T13:13:34.819Z,100051.41
2022-10-01T13:16:28.324Z,100040.16
2022-10-01T13:19:17.893Z,100046.31
2022-10-01T13:22:16.342Z,100046.06
2022-10-01T13:25:08.491Z,100042.03
2022-10-01T13:27:43.468Z,100034.53
2022-10-01T13:30:23.251Z,100039.09
2022-10-01T13:33:32.049Z,100027.28
2022-10-01T13:36:36.174Z,100037.75
2022-10-01T13:42:27.046Z,100033.47
2022-10-01T13:44:58.795Z,100039.38
2022-10-01T13:47:26.815Z,100034.53
2022-10-01T13:50:05.022Z,100031.59
2022-10-01T13:52:32.731Z,100037.00
2022-10-01T13:55:30.845Z,100038.63
2022-10-01T13:58:07.187Z,100038.88
2022-10-01T14:00:34.332Z,100044.25
2022-10-01T14:03:27.406Z,100036.72
2022-10-01T14:05:58.798Z,100038.63
2022-10-01T14:08:38.433Z,100032.44
2022-10-01T14:11:35.846Z,100033.81
2022-10-01T14:14:54.050Z,100036.22
2022-10-01T14:17:32.221Z,100027.63
2022-10-01T14:20:01.229Z,100023.06
2022-10-01T14:23:08.254Z,100019.03
2022-10-01T14:25:58.465Z,100019.28
2022-10-01T14:28:47.543Z,100014.44
2022-10-01T14:31:57.478Z,100022.22
2022-10-01T14:34:36.725Z,100016.31
2022-10-01T14:37:08.347Z,100015.78
2022-10-01T14:39:35.377Z,100009.88
2022-10-01T14:42:17.526Z,100008.78
2022-10-01T14:47:38.292Z,100012.00
2022-10-01T14:50:19.496Z,100002.59
2022-10-01T14:52:51.048Z,100010.38
2022-10-01T14:55:22.640Z,100016.28
2022-10-01T14:57:53.479Z,100001.78
2022-10-01T15:00:24.725Z,100012.50
2022-10-01T15:03:17.129Z,100014.13
2022-10-01T15:05:46.452Z,100009.81
2022-10-01T15:08:22.980Z,100002.81
2022-10-01T15:14:24.813Z,100015.72
2022-10-01T15:16:52.545Z,100009.28
2022-10-01T15:19:21.890Z,100010.88
2022-10-01T15:21:55.363Z,100007.34
2022-10-01T15:24:43.483Z,100017.28
2022-10-01T15:27:13.980Z,100027.25
2022-10-01T15:29:44.781Z,100016.47
2022-10-01T15:32:22.498Z,100030.72
2022-10-01T15:34:56.772Z,100033.41
2022-10-01T15:37:37.478Z,100035.53
2022-10-01T15:40:12.232Z,100009.50
2022-10-01T15:42:39.685Z,100020.22
2022-10-01T15:45:10.192Z,100035.25
2022-10-01T15:47:51.857Z,100032.03
2022-10-01T15:50:32.595Z,100033.38
2022-10-01T15:53:22.211Z,100032.00
2022-10-01T15:55:52.825Z,100034.44
2022-10-01T15:58:23.355Z,100028.53
2022-10-01T16:01:04.027Z,100037.41
2022-10-01T16:03:33.894Z,100034.72
2022-10-01T16:06:08.338Z,100030.66
2022-10-01T16:09:00.100Z,100025.28
2022-10-01T16:11:32.068Z,100030.66
2022-10-01T16:14:44.553Z,100028.25
2022-10-01T16:17:20.202Z,100042.50
2022-10-01T16:20:15.080Z,100031.50
2022-10-01T16:22:43.267Z,100040.13
2022-10-01T16:25:18.273Z,100043.09
2022-10-01T16:28:03.821Z,100050.63
2022-10-01T16:30:32.573Z,100046.06
2022-10-01T16:33:04.403Z,100053.88
2022-10-01T16:35:40.627Z,100069.47
2022-10-01T16:38:10.065Z,100069.75
2022-10-01T16:40:45.105Z,100070.81
2022-10-01T16:43:20.276Z,100073.25
2022-10-01T16:45:47.184Z,100072.19
2022-10-01T16:48:17.674Z,100075.41
2022-10-01T16:50:46.367Z,100074.34
2022-10-01T16:53:16.651Z,100082.69
2022-10-01T16:55:47.367Z,100084.03
2022-10-01T16:58:14.553Z,100078.91
2022-10-01T17:00:42.047Z,100082.94
2022-10-01T17:03:19.302Z,100084.56
2022-10-01T17:05:47.453Z,100087.78
2022-10-01T17:08:15.713Z,100089.13
2022-10-01T17:10:45.829Z,100086.19
2022-10-01T17:13:14.924Z,100093.72
2022-10-01T17:15:42.640Z,100092.63
2022-10-01T17:18:09.652Z,100101.50
2022-10-01T17:20:38.344Z,100100.41
2022-10-01T17:23:06.146Z,100098.53
2022-10-01T17:25:36.177Z,100097.97
2022-10-01T17:28:08.298Z,100107.69
2022-10-01T17:30:40.465Z,100096.91
2022-10-01T17:33:08.993Z,100103.88
2022-10-01T17:35:44.442Z,100104.69
2022-10-01T17:38:12.979Z,100083.75
2022-10-01T17:40:45.113Z,100097.44
2022-10-01T17:43:14.394Z,100103.34
2022-10-01T17:45:41.865Z,100107.69
2022-10-01T17:48:10.123Z,100104.44
2022-10-01T17:50:44.585Z,100098.81
2022-10-01T17:53:12.542Z,100100.16
2022-10-01T17:55:41.418Z,100110.63
2022-10-01T17:58:12.189Z,100107.13
2022-10-01T18:00:41.617Z,100106.06
2022-10-01T18:03:08.553Z,100110.91
2022-10-01T18:05:37.900Z,100110.09
2022-10-01T18:08:05.901Z,100116.28
2022-10-01T18:10:32.716Z,100120.31
2022-10-01T18:12:59.904Z,100115.47
2022-10-01T18:15:28.883Z,100116.53
2022-10-01T18:20:43.030Z,100133.19
2022-10-01T18:23:09.840Z,100156.56
2022-10-01T18:25:36.738Z,100156.31
2022-10-01T18:28:03.831Z,100149.06
2022-10-01T18:30:30.845Z,100144.75
2022-10-01T18:32:57.786Z,100152.25
2022-10-01T18:35:32.638Z,100148.75
2022-10-01T18:38:25.325Z,100168.94
2022-10-01T18:41:38.900Z,100160.84
2022-10-01T18:44:20.560Z,100161.41
2022-10-01T18:47:24.674Z,100169.47
2022-10-01T18:50:31.451Z,100172.41
2022-10-01T18:53:40.038Z,100171.88
2022-10-01T18:56:32.025Z,100168.91
2022-10-01T18:59:56.108Z,100185.34
2022-10-01T19:02:48.095Z,100192.34
2022-10-01T19:05:38.147Z,100204.19
2022-10-01T19:09:02.862Z,100197.47
2022-10-01T19:11:50.405Z,100210.13
2022-10-01T19:15:23.322Z,100228.13
2022-10-01T19:18:54.257Z,100226.78
2022-10-01T19:21:53.729Z,100234.59
2022-10-01T19:24:52.056Z,100239.97
2022-10-01T19:27:42.236Z,100234.56
2022-10-01T19:30:16.065Z,100251.78
2022-10-01T19:33:05.605Z,100248.81
2022-10-01T19:35:49.335Z,100256.59
2022-10-01T19:38:29.537Z,100256.06
2022-10-01T19:41:00.253Z,100249.06
2022-10-01T19:43:55.693Z,100251.47
2022-10-01T19:46:35.999Z,100263.84
2022-10-01T19:49:09.510Z,100266.28
2022-10-01T19:51:57.181Z,100279.47
2022-10-01T19:54:32.596Z,100284.03
2022-10-01T19:57:23.637Z,100277.59
2022-10-01T20:00:11.585Z,100287.81
2022-10-01T20:02:59.949Z,100288.34
2022-10-01T20:05:41.069Z,100297.25
2022-10-01T20:08:16.127Z,100294.81
2022-10-01T20:10:58.052Z,100301.81
2022-10-01T20:14:11.493Z,100308.84
2022-10-01T20:16:46.966Z,100314.22
2022-10-01T20:19:39.133Z,100310.44
2022-10-01T20:22:33.958Z,100326.31
2022-10-01T20:25:11.593Z,100318.25
2022-10-01T20:27:55.010Z,100337.31
2022-10-01T20:30:23.765Z,100331.38
2022-10-01T20:33:20.593Z,100338.34
2022-10-01T20:36:02.473Z,100342.09
2022-10-01T20:38:40.494Z,100345.84
2022-10-01T20:41:18.149Z,100360.38
2022-10-01T20:43:57.698Z,100354.72
2022-10-01T20:46:39.209Z,100366.81
2022-10-01T20:49:32.882Z,100374.59
2022-10-01T20:52:27.873Z,100361.66
2022-10-01T20:55:13.806Z,100374.84
2022-10-01T20:57:51.827Z,100381.28
2022-10-01T21:00:27.697Z,100394.72
2022-10-01T21:03:25.705Z,100385.56
2022-10-01T21:06:05.288Z,100388.78
2022-10-01T21:08:46.824Z,100388.22
2022-10-01T21:11:26.585Z,100404.88
2022-10-01T21:14:27.217Z,100397.34
2022-10-01T21:17:06.242Z,100405.09
2022-10-01T21:19:54.281Z,100407.25
2022-10-01T21:23:03.379Z,100417.72
2022-10-01T21:25:33.336Z,100426.28
2022-10-01T21:28:26.182Z,100430.28
2022-10-01T21:31:13.234Z,100437.50
2022-10-01T21:33:54.212Z,100442.28
2022-10-01T21:36:31.273Z,100436.63
2022-10-01T21:39:29.437Z,100452.72
2022-10-01T21:42:14.502Z,100447.59
2022-10-01T21:45:08.451Z,100456.22
2022-10-01T21:48:16.205Z,100454.59
2022-10-01T21:51:09.857Z,100469.59
2022-10-01T21:54:20.392Z,100470.94
2022-10-01T21:57:35.868Z,100478.44
2022-10-01T22:00:26.234Z,100482.16
2022-10-01T22:03:03.810Z,100477.56
2022-10-01T22:05:52.142Z,100491.28
2022-10-01T22:08:48.497Z,100504.66
2022-10-01T22:11:27.601Z,100504.66
2022-10-01T22:14:20.221Z,100517.81
2022-10-01T22:16:57.578Z,100516.22
2022-10-01T22:19:39.528Z,100522.66
2022-10-01T22:22:41.572Z,100521.59
2022-10-01T22:25:09.098Z,100536.06
2022-10-01T22:27:59.273Z,100526.13
2022-10-01T22:30:33.475Z,100534.19
2022-10-01T22:33:25.099Z,100549.25
2022-10-01T22:36:13.293Z,100551.13
2022-10-01T22:39:25.505Z,100557.28
2022-10-01T22:42:09.959Z,100555.13
2022-10-01T22:44:37.250Z,100565.31
2022-10-01T22:47:19.055Z,100572.84
2022-10-01T22:50:24.045Z,100566.38
2022-10-01T22:53:38.672Z,100577.91
2022-10-01T22:56:06.649Z,100570.63
2022-10-01T22:58:49.176Z,100590.78
2022-10-01T23:01:37.413Z,100583.25
2022-10-01T23:04:32.299Z,100582.19
2022-10-01T23:07:17.719Z,100594.22
2022-10-01T23:10:09.774Z,100597.16
2022-10-01T23:13:11.799Z,100589.38
2022-10-01T23:16:01.763Z,100612.47
2022-10-01T23:19:12.430Z,100612.72
2022-10-01T23:21:53.031Z,100611.34
2022-10-01T23:24:31.740Z,100621.03
2022-10-01T23:27:19.105Z,100628.53
2022-10-01T23:30:07.491Z,100626.66
2022-10-01T23:32:55.581Z,100640.06
2022-10-01T23:35:35.325Z,100640.56
2022-10-01T23:38:10.924Z,100636.00
2022-10-01T23:40:44.212Z,100643.25
2022-10-01T23:43:47.055Z,100635.22
2022-10-01T23:46:31.111Z,100651.56
2022-10-01T23:49:15.147Z,100655.38
2022-10-01T23:52:24.567Z,100655.13
2022-10-01T23:55:22.920Z,100658.34
2022-10-01T23:57:57.661Z,100658.09
